PWSweather.com
Personal Weather Stations
Station Observations
DW6359
Southwest Cambria, Cambria, WI 53923

Southwest CambriaCambria, WI 53923

Lat: 43.541194, Lon: -89.11275

Elevation: 945

Station Type: Davis Vantage Pro2

http://home.centurytel.net/weathercambria/wxcambria.html

High Low Average
Temperature 39.7°F4.3°C 28.4°F-2.0°C 33.1°F0.6°C
Dew Point 29.4°F-1.4°C 20.5°F-6.4°C 24.5°F-4.2°C
Winds 14.0 mph 22.5 kmh Calm Calm 4.0 mph SW6.4 kmh SW
Wind Gusts 17.0 mph27.4 kmh -- 2.0 mph3.2 kmh
Humidity 80% 57% 71%
Pressure 29.95 in1014.2 mb 29.72 in1006.4 mb -
Precipitation 0.00 in0.0 mm - -
Hour Temp Dew Point Humidity Winds Wind Gusts Pressure Precip Precip Rate Daily Precip Total
12:00 AM 28.5°F-1.9°C 20.6°F-6.3°C 72% 6.0 mph SSW9.7 kmh SSW -- 30.01 in1016.3 mb 0.00 in0.0 mm 0.00 in0.0 mm 0.00 in0.0 mm
12:05 AM 28.5°F-1.9°C 20.3°F-6.5°C 71% 6.0 mph SSE9.7 kmh SSE -- 30.01 in1016.3 mb 0.00 in0.0 mm 0.00 in0.0 mm 0.00 in0.0 mm
12:10 AM 28.5°F-1.9°C 20.3°F-6.5°C 71% 6.0 mph S9.7 kmh S -- 30.01 in1016.3 mb 0.00 in0.0 mm 0.00 in0.0 mm 0.00 in0.0 mm
12:15 AM 28.5°F-1.9°C 20.3°F-6.5°C 71% 5.0 mph S8.0 kmh S -- 30.00 in1015.9 mb 0.00 in0.0 mm 0.00 in0.0 mm 0.00 in0.0 mm
12:20 AM 28.6°F-1.9°C 20.4°F-6.4°C 71% 3.0 mph S4.8 kmh S -- 30.00 in1015.9 mb 0.00 in0.0 mm 0.00 in0.0 mm 0.00 in0.0 mm
12:25 AM 28.5°F-1.9°C 20.3°F-6.5°C 71% 3.0 mph S4.8 kmh S -- 29.99 in1015.6 mb 0.00 in0.0 mm 0.00 in0.0 mm 0.00 in0.0 mm
12:30 AM 28.5°F-1.9°C 20.3°F-6.5°C 71% 5.0 mph S8.0 kmh S 15.0 mph24.1 kmh 29.99 in1015.6 mb 0.00 in0.0 mm 0.00 in0.0 mm 0.00 in0.0 mm
12:35 AM 28.5°F-1.9°C 20.3°F-6.5°C 71% 7.0 mph S11.3 kmh S 15.0 mph24.1 kmh 29.98 in1015.2 mb 0.00 in0.0 mm 0.00 in0.0 mm 0.00 in0.0 mm
12:40 AM 28.4°F-2.0°C 20.5°F-6.4°C 72% 8.0 mph SSE12.9 kmh SSE -- 29.98 in1015.2 mb 0.00 in0.0 mm 0.00 in0.0 mm 0.00 in0.0 mm
12:45 AM 28.5°F-1.9°C 20.6°F-6.3°C 72% 12.0 mph SE19.3 kmh SE -- 29.97 in1014.9 mb 0.00 in0.0 mm 0.00 in0.0 mm 0.00 in0.0 mm
12:50 AM 28.4°F-2.0°C 20.5°F-6.4°C 72% 7.0 mph SSW11.3 kmh SSW -- 29.96 in1014.6 mb 0.00 in0.0 mm 0.00 in0.0 mm 0.00 in0.0 mm
12:55 AM 28.4°F-2.0°C 20.5°F-6.4°C 72% 10.0 mph S16.1 kmh S -- 29.95 in1014.2 mb 0.00 in0.0 mm 0.00 in0.0 mm 0.00 in0.0 mm
01:00 AM 28.4°F-2.0°C 20.5°F-6.4°C 72% 7.0 mph SSE11.3 kmh SSE -- 29.95 in1014.2 mb 0.00 in0.0 mm 0.00 in0.0 mm 0.00 in0.0 mm
01:05 AM 28.4°F-2.0°C 20.5°F-6.4°C 72% 4.0 mph S6.4 kmh S -- 29.94 in1013.9 mb 0.00 in0.0 mm 0.00 in0.0 mm 0.00 in0.0 mm
01:10 AM 28.4°F-2.0°C 20.5°F-6.4°C 72% 9.0 mph SW14.5 kmh SW -- 29.93 in1013.5 mb 0.00 in0.0 mm 0.00 in0.0 mm 0.00 in0.0 mm
01:15 AM 28.4°F-2.0°C 20.5°F-6.4°C 72% 6.0 mph SE9.7 kmh SE -- 29.93 in1013.5 mb 0.00 in0.0 mm 0.00 in0.0 mm 0.00 in0.0 mm
01:20 AM 28.4°F-2.0°C 20.5°F-6.4°C 72% 6.0 mph S9.7 kmh S 16.0 mph25.7 kmh 29.92 in1013.2 mb 0.00 in0.0 mm 0.00 in0.0 mm 0.00 in0.0 mm
01:25 AM 28.5°F-1.9°C 20.6°F-6.3°C 72% 10.0 mph SSE16.1 kmh SSE 16.0 mph25.7 kmh 29.92 in1013.2 mb 0.00 in0.0 mm 0.00 in0.0 mm 0.00 in0.0 mm
01:30 AM 28.5°F-1.9°C 20.6°F-6.3°C 72% 7.0 mph S11.3 kmh S -- 29.92 in1013.2 mb 0.00 in0.0 mm 0.00 in0.0 mm 0.00 in0.0 mm
01:35 AM 28.6°F-1.9°C 20.7°F-6.3°C 72% 14.0 mph S22.5 kmh S -- 29.92 in1013.2 mb 0.00 in0.0 mm 0.00 in0.0 mm 0.00 in0.0 mm
01:40 AM 28.6°F-1.9°C 20.7°F-6.3°C 72% 6.0 mph S9.7 kmh S -- 29.92 in1013.2 mb 0.00 in0.0 mm 0.00 in0.0 mm 0.00 in0.0 mm
01:45 AM 28.7°F-1.8°C 20.8°F-6.2°C 72% 4.0 mph SE6.4 kmh SE -- 29.91 in1012.9 mb 0.00 in0.0 mm 0.00 in0.0 mm 0.00 in0.0 mm
01:50 AM 28.7°F-1.8°C 20.8°F-6.2°C 72% 6.0 mph S9.7 kmh S -- 29.91 in1012.9 mb 0.00 in0.0 mm 0.00 in0.0 mm 0.00 in0.0 mm
01:55 AM 28.7°F-1.8°C 20.8°F-6.2°C 72% 2.0 mph S3.2 kmh S -- 29.91 in1012.9 mb 0.00 in0.0 mm 0.00 in0.0 mm 0.00 in0.0 mm
02:00 AM 28.7°F-1.8°C 20.8°F-6.2°C 72% 7.0 mph SE11.3 kmh SE -- 29.91 in1012.9 mb 0.00 in0.0 mm 0.00 in0.0 mm 0.00 in0.0 mm
02:05 AM 28.7°F-1.8°C 20.8°F-6.2°C 72% 3.0 mph S4.8 kmh S -- 29.90 in1012.5 mb 0.00 in0.0 mm 0.00 in0.0 mm 0.00 in0.0 mm
02:10 AM 28.7°F-1.8°C 20.8°F-6.2°C 72% 3.0 mph S4.8 kmh S 13.0 mph20.9 kmh 29.90 in1012.5 mb 0.00 in0.0 mm 0.00 in0.0 mm 0.00 in0.0 mm
02:15 AM 28.7°F-1.8°C 21.2°F-6.0°C 73% 4.0 mph SSE6.4 kmh SSE 13.0 mph20.9 kmh 29.89 in1012.2 mb 0.00 in0.0 mm 0.00 in0.0 mm 0.00 in0.0 mm
02:20 AM 28.8°F-1.8°C 21.3°F-5.9°C 73% 5.0 mph S8.0 kmh S -- 29.89 in1012.2 mb 0.00 in0.0 mm 0.00 in0.0 mm 0.00 in0.0 mm
02:25 AM 28.8°F-1.8°C 21.3°F-5.9°C 73% 5.0 mph S8.0 kmh S -- 29.88 in1011.9 mb 0.00 in0.0 mm 0.00 in0.0 mm 0.00 in0.0 mm
02:30 AM 28.9°F-1.7°C 21.0°F-6.1°C 72% 6.0 mph S9.7 kmh S -- 29.88 in1011.9 mb 0.00 in0.0 mm 0.00 in0.0 mm 0.00 in0.0 mm
02:35 AM 29.0°F-1.7°C 21.1°F-6.1°C 72% 6.0 mph SSE9.7 kmh SSE -- 29.88 in1011.9 mb 0.00 in0.0 mm 0.00 in0.0 mm 0.00 in0.0 mm
02:40 AM 29.1°F-1.6°C 21.2°F-6.0°C 72% 7.0 mph SE11.3 kmh SE -- 29.88 in1011.9 mb 0.00 in0.0 mm 0.00 in0.0 mm 0.00 in0.0 mm
02:45 AM 29.2°F-1.6°C 21.3°F-5.9°C 72% 7.0 mph S11.3 kmh S -- 29.88 in1011.9 mb 0.00 in0.0 mm 0.00 in0.0 mm 0.00 in0.0 mm
02:50 AM 29.3°F-1.5°C 21.4°F-5.9°C 72% 7.0 mph S11.3 kmh S -- 29.88 in1011.9 mb 0.00 in0.0 mm 0.00 in0.0 mm 0.00 in0.0 mm
02:55 AM 29.5°F-1.4°C 21.3°F-5.9°C 71% 1.0 mph S1.6 kmh S -- 29.87 in1011.5 mb 0.00 in0.0 mm 0.00 in0.0 mm 0.00 in0.0 mm
03:00 AM 29.5°F-1.4°C 21.3°F-5.9°C 71% 7.0 mph SSW11.3 kmh SSW 13.0 mph20.9 kmh 29.87 in1011.5 mb 0.00 in0.0 mm 0.00 in0.0 mm 0.00 in0.0 mm
03:05 AM 29.6°F-1.3°C 21.4°F-5.9°C 71% 8.0 mph SSE12.9 kmh SSE 13.0 mph20.9 kmh 29.87 in1011.5 mb 0.00 in0.0 mm 0.00 in0.0 mm 0.00 in0.0 mm
03:10 AM 29.6°F-1.3°C 21.4°F-5.9°C 71% 5.0 mph S8.0 kmh S -- 29.86 in1011.2 mb 0.00 in0.0 mm 0.00 in0.0 mm 0.00 in0.0 mm
03:15 AM 29.6°F-1.3°C 21.4°F-5.9°C 71% 5.0 mph S8.0 kmh S -- 29.86 in1011.2 mb 0.00 in0.0 mm 0.00 in0.0 mm 0.00 in0.0 mm
03:20 AM 29.7°F-1.3°C 21.5°F-5.8°C 71% 2.0 mph SSE3.2 kmh SSE -- 29.85 in1010.8 mb 0.00 in0.0 mm 0.00 in0.0 mm 0.00 in0.0 mm
03:25 AM 29.8°F-1.2°C 21.6°F-5.8°C 71% 4.0 mph SSE6.4 kmh SSE -- 29.85 in1010.8 mb 0.00 in0.0 mm 0.00 in0.0 mm 0.00 in0.0 mm
03:30 AM 29.8°F-1.2°C 21.6°F-5.8°C 71% 4.0 mph SSE6.4 kmh SSE -- 29.85 in1010.8 mb 0.00 in0.0 mm 0.00 in0.0 mm 0.00 in0.0 mm
03:35 AM 29.9°F-1.2°C 21.7°F-5.7°C 71% 5.0 mph S8.0 kmh S -- 29.84 in1010.5 mb 0.00 in0.0 mm 0.00 in0.0 mm 0.00 in0.0 mm
03:40 AM 30.0°F-1.1°C 21.8°F-5.7°C 71% 5.0 mph SSE8.0 kmh SSE -- 29.84 in1010.5 mb 0.00 in0.0 mm 0.00 in0.0 mm 0.00 in0.0 mm
03:45 AM 30.0°F-1.1°C 21.8°F-5.7°C 71% 3.0 mph SSE4.8 kmh SSE -- 29.84 in1010.5 mb 0.00 in0.0 mm 0.00 in0.0 mm 0.00 in0.0 mm
03:50 AM 30.0°F-1.1°C 21.8°F-5.7°C 71% 3.0 mph SSE4.8 kmh SSE 11.0 mph17.7 kmh 29.83 in1010.2 mb 0.00 in0.0 mm 0.00 in0.0 mm 0.00 in0.0 mm
03:55 AM 30.1°F-1.1°C 21.9°F-5.6°C 71% 5.0 mph S8.0 kmh S 11.0 mph17.7 kmh 29.83 in1010.2 mb 0.00 in0.0 mm 0.00 in0.0 mm 0.00 in0.0 mm
04:00 AM 30.1°F-1.1°C 21.9°F-5.6°C 71% 3.0 mph S4.8 kmh S -- 29.82 in1009.8 mb 0.00 in0.0 mm 0.00 in0.0 mm 0.00 in0.0 mm
04:05 AM 30.2°F-1.0°C 21.9°F-5.6°C 71% 2.0 mph SSE3.2 kmh SSE -- 29.82 in1009.8 mb 0.00 in0.0 mm 0.00 in0.0 mm 0.00 in0.0 mm
04:10 AM 30.1°F-1.1°C 21.9°F-5.6°C 71% 4.0 mph S6.4 kmh S -- 29.81 in1009.5 mb 0.00 in0.0 mm 0.00 in0.0 mm 0.00 in0.0 mm
04:15 AM 30.1°F-1.1°C 21.9°F-5.6°C 71% 10.0 mph SSE16.1 kmh SSE -- 29.81 in1009.5 mb 0.00 in0.0 mm 0.00 in0.0 mm 0.00 in0.0 mm
04:20 AM 30.1°F-1.1°C 21.9°F-5.6°C 71% 6.0 mph S9.7 kmh S -- 29.80 in1009.1 mb 0.00 in0.0 mm 0.00 in0.0 mm 0.00 in0.0 mm
04:25 AM 30.1°F-1.1°C 21.9°F-5.6°C 71% 5.0 mph S8.0 kmh S -- 29.80 in1009.1 mb 0.00 in0.0 mm 0.00 in0.0 mm 0.00 in0.0 mm
04:30 AM 30.1°F-1.1°C 21.9°F-5.6°C 71% 7.0 mph SSW11.3 kmh SSW -- 29.80 in1009.1 mb 0.00 in0.0 mm 0.00 in0.0 mm 0.00 in0.0 mm
04:35 AM 30.2°F-1.0°C 21.9°F-5.6°C 71% 3.0 mph S4.8 kmh S -- 29.80 in1009.1 mb 0.00 in0.0 mm 0.00 in0.0 mm 0.00 in0.0 mm
04:40 AM 30.2°F-1.0°C 21.9°F-5.6°C 71% 4.0 mph S6.4 kmh S 13.0 mph20.9 kmh 29.80 in1009.1 mb 0.00 in0.0 mm 0.00 in0.0 mm 0.00 in0.0 mm
04:45 AM 30.2°F-1.0°C 21.9°F-5.6°C 71% 3.0 mph S4.8 kmh S 13.0 mph20.9 kmh 29.80 in1009.1 mb 0.00 in0.0 mm 0.00 in0.0 mm 0.00 in0.0 mm
04:50 AM 30.3°F-0.9°C 22.0°F-5.6°C 71% 7.0 mph S11.3 kmh S -- 29.79 in1008.8 mb 0.00 in0.0 mm 0.00 in0.0 mm 0.00 in0.0 mm
04:55 AM 30.3°F-0.9°C 22.0°F-5.6°C 71% 1.0 mph S1.6 kmh S -- 29.79 in1008.8 mb 0.00 in0.0 mm 0.00 in0.0 mm 0.00 in0.0 mm
05:00 AM 30.3°F-0.9°C 21.7°F-5.7°C 70% 5.0 mph S8.0 kmh S -- 29.79 in1008.8 mb 0.00 in0.0 mm 0.00 in0.0 mm 0.00 in0.0 mm
05:05 AM 30.4°F-0.9°C 21.8°F-5.7°C 70% 3.0 mph SSE4.8 kmh SSE -- 29.79 in1008.8 mb 0.00 in0.0 mm 0.00 in0.0 mm 0.00 in0.0 mm
05:10 AM 30.4°F-0.9°C 21.8°F-5.7°C 70% Calm Calm -- 29.79 in1008.8 mb 0.00 in0.0 mm 0.00 in0.0 mm 0.00 in0.0 mm
05:15 AM 30.5°F-0.8°C 21.9°F-5.6°C 70% 8.0 mph SSE12.9 kmh SSE -- 29.79 in1008.8 mb 0.00 in0.0 mm 0.00 in0.0 mm 0.00 in0.0 mm
05:20 AM 30.5°F-0.8°C 21.9°F-5.6°C 70% 5.0 mph S8.0 kmh S -- 29.79 in1008.8 mb 0.00 in0.0 mm 0.00 in0.0 mm 0.00 in0.0 mm
05:25 AM 30.6°F-0.8°C 22.0°F-5.6°C 70% 2.0 mph SW3.2 kmh SW -- 29.79 in1008.8 mb 0.00 in0.0 mm 0.00 in0.0 mm 0.00 in0.0 mm
05:30 AM 30.8°F-0.7°C 22.2°F-5.4°C 70% 2.0 mph S3.2 kmh S 10.0 mph16.1 kmh 29.79 in1008.8 mb 0.00 in0.0 mm 0.00 in0.0 mm 0.00 in0.0 mm
05:35 AM 30.9°F-0.6°C 21.9°F-5.6°C 69% 6.0 mph S9.7 kmh S 10.0 mph16.1 kmh 29.78 in1008.5 mb 0.00 in0.0 mm 0.00 in0.0 mm 0.00 in0.0 mm
05:40 AM 31.0°F-0.6°C 22.0°F-5.6°C 69% 4.0 mph SSW6.4 kmh SSW -- 29.77 in1008.1 mb 0.00 in0.0 mm 0.00 in0.0 mm 0.00 in0.0 mm
05:45 AM 31.1°F-0.5°C 22.1°F-5.5°C 69% 2.0 mph SSW3.2 kmh SSW -- 29.77 in1008.1 mb 0.00 in0.0 mm 0.00 in0.0 mm 0.00 in0.0 mm
05:50 AM 31.1°F-0.5°C 21.8°F-5.7°C 68% 3.0 mph SSW4.8 kmh SSW -- 29.77 in1008.1 mb 0.00 in0.0 mm 0.00 in0.0 mm 0.00 in0.0 mm
05:55 AM 31.2°F-0.4°C 21.9°F-5.6°C 68% 1.0 mph S1.6 kmh S -- 29.77 in1008.1 mb 0.00 in0.0 mm 0.00 in0.0 mm 0.00 in0.0 mm
06:00 AM 31.3°F-0.4°C 22.0°F-5.6°C 68% 3.0 mph SW4.8 kmh SW -- 29.77 in1008.1 mb 0.00 in0.0 mm 0.00 in0.0 mm 0.00 in0.0 mm
06:05 AM 31.4°F-0.3°C 22.1°F-5.5°C 68% 6.0 mph SSW9.7 kmh SSW -- 29.77 in1008.1 mb 0.00 in0.0 mm 0.00 in0.0 mm 0.00 in0.0 mm
06:10 AM 31.4°F-0.3°C 22.1°F-5.5°C 68% 7.0 mph SW11.3 kmh SW -- 29.77 in1008.1 mb 0.00 in0.0 mm 0.00 in0.0 mm 0.00 in0.0 mm
06:15 AM 31.2°F-0.4°C 21.9°F-5.6°C 68% 3.0 mph S4.8 kmh S -- 29.77 in1008.1 mb 0.00 in0.0 mm 0.00 in0.0 mm 0.00 in0.0 mm
06:20 AM 31.1°F-0.5°C 21.8°F-5.7°C 68% 5.0 mph SSW8.0 kmh SSW 9.0 mph14.5 kmh 29.77 in1008.1 mb 0.00 in0.0 mm 0.00 in0.0 mm 0.00 in0.0 mm
06:25 AM 31.0°F-0.6°C 21.7°F-5.7°C 68% 6.0 mph SSW9.7 kmh SSW 9.0 mph14.5 kmh 29.77 in1008.1 mb 0.00 in0.0 mm 0.00 in0.0 mm 0.00 in0.0 mm
06:30 AM 31.0°F-0.6°C 22.0°F-5.6°C 69% 4.0 mph SSW6.4 kmh SSW -- 29.77 in1008.1 mb 0.00 in0.0 mm 0.00 in0.0 mm 0.00 in0.0 mm
06:35 AM 31.0°F-0.6°C 22.0°F-5.6°C 69% 3.0 mph SSW4.8 kmh SSW -- 29.77 in1008.1 mb 0.00 in0.0 mm 0.00 in0.0 mm 0.00 in0.0 mm
06:40 AM 31.0°F-0.6°C 22.0°F-5.6°C 69% 2.0 mph S3.2 kmh S -- 29.77 in1008.1 mb 0.00 in0.0 mm 0.00 in0.0 mm 0.00 in0.0 mm
06:45 AM 31.0°F-0.6°C 22.0°F-5.6°C 69% 3.0 mph SSW4.8 kmh SSW -- 29.77 in1008.1 mb 0.00 in0.0 mm 0.00 in0.0 mm 0.00 in0.0 mm
06:50 AM 31.0°F-0.6°C 22.0°F-5.6°C 69% 6.0 mph SW9.7 kmh SW -- 29.77 in1008.1 mb 0.00 in0.0 mm 0.00 in0.0 mm 0.00 in0.0 mm
06:55 AM 30.9°F-0.6°C 21.9°F-5.6°C 69% 2.0 mph SSW3.2 kmh SSW -- 29.77 in1008.1 mb 0.00 in0.0 mm 0.00 in0.0 mm 0.00 in0.0 mm
07:00 AM 30.8°F-0.7°C 22.2°F-5.4°C 70% 4.0 mph SW6.4 kmh SW -- 29.77 in1008.1 mb 0.00 in0.0 mm 0.00 in0.0 mm 0.00 in0.0 mm
07:05 AM 30.7°F-0.7°C 22.1°F-5.5°C 70% 3.0 mph SSW4.8 kmh SSW -- 29.77 in1008.1 mb 0.00 in0.0 mm 0.00 in0.0 mm 0.00 in0.0 mm
07:10 AM 30.7°F-0.7°C 22.1°F-5.5°C 70% 4.0 mph SW6.4 kmh SW 5.0 mph8.0 kmh 29.77 in1008.1 mb 0.00 in0.0 mm 0.00 in0.0 mm 0.00 in0.0 mm
07:15 AM 30.6°F-0.8°C 22.0°F-5.6°C 70% 3.0 mph SW4.8 kmh SW 5.0 mph8.0 kmh 29.77 in1008.1 mb 0.00 in0.0 mm 0.00 in0.0 mm 0.00 in0.0 mm
07:20 AM 30.6°F-0.8°C 22.0°F-5.6°C 70% 4.0 mph SW6.4 kmh SW -- 29.77 in1008.1 mb 0.00 in0.0 mm 0.00 in0.0 mm 0.00 in0.0 mm
07:25 AM 30.4°F-0.9°C 21.8°F-5.7°C 70% 4.0 mph SW6.4 kmh SW -- 29.76 in1007.8 mb 0.00 in0.0 mm 0.00 in0.0 mm 0.00 in0.0 mm
07:30 AM 30.3°F-0.9°C 22.0°F-5.6°C 71% 4.0 mph SW6.4 kmh SW -- 29.75 in1007.5 mb 0.00 in0.0 mm 0.00 in0.0 mm 0.00 in0.0 mm
07:35 AM 30.3°F-0.9°C 22.0°F-5.6°C 71% 3.0 mph SW4.8 kmh SW -- 29.76 in1007.8 mb 0.00 in0.0 mm 0.00 in0.0 mm 0.00 in0.0 mm
07:40 AM 30.2°F-1.0°C 21.9°F-5.6°C 71% 4.0 mph S6.4 kmh S -- 29.75 in1007.5 mb 0.00 in0.0 mm 0.00 in0.0 mm 0.00 in0.0 mm
07:45 AM 30.2°F-1.0°C 22.3°F-5.4°C 72% 2.0 mph S3.2 kmh S -- 29.75 in1007.5 mb 0.00 in0.0 mm 0.00 in0.0 mm 0.00 in0.0 mm
07:50 AM 30.3°F-0.9°C 22.4°F-5.3°C 72% Calm Calm -- 29.75 in1007.5 mb 0.00 in0.0 mm 0.00 in0.0 mm 0.00 in0.0 mm
07:55 AM 30.4°F-0.9°C 22.1°F-5.5°C 71% Calm Calm -- 29.74 in1007.1 mb 0.00 in0.0 mm 0.00 in0.0 mm 0.00 in0.0 mm
08:00 AM 30.4°F-0.9°C 22.1°F-5.5°C 71% 1.0 mph S1.6 kmh S 4.0 mph6.4 kmh 29.73 in1006.8 mb 0.00 in0.0 mm 0.00 in0.0 mm 0.00 in0.0 mm
08:05 AM 30.3°F-0.9°C 22.0°F-5.6°C 71% 4.0 mph S6.4 kmh S 4.0 mph6.4 kmh 29.74 in1007.1 mb 0.00 in0.0 mm 0.00 in0.0 mm 0.00 in0.0 mm
08:10 AM 30.2°F-1.0°C 21.9°F-5.6°C 71% 3.0 mph SSW4.8 kmh SSW -- 29.73 in1006.8 mb 0.00 in0.0 mm 0.00 in0.0 mm 0.00 in0.0 mm
08:15 AM 30.2°F-1.0°C 22.3°F-5.4°C 72% 2.0 mph SSW3.2 kmh SSW -- 29.73 in1006.8 mb 0.00 in0.0 mm 0.00 in0.0 mm 0.00 in0.0 mm
08:20 AM 30.1°F-1.1°C 22.2°F-5.4°C 72% 2.0 mph S3.2 kmh S -- 29.72 in1006.4 mb 0.00 in0.0 mm 0.00 in0.0 mm 0.00 in0.0 mm
08:25 AM 30.3°F-0.9°C 22.4°F-5.3°C 72% 3.0 mph S4.8 kmh S -- 29.73 in1006.8 mb 0.00 in0.0 mm 0.00 in0.0 mm 0.00 in0.0 mm
08:30 AM 30.5°F-0.8°C 22.6°F-5.2°C 72% 1.0 mph SW1.6 kmh SW -- 29.74 in1007.1 mb 0.00 in0.0 mm 0.00 in0.0 mm 0.00 in0.0 mm
08:35 AM 30.5°F-0.8°C 22.6°F-5.2°C 72% 1.0 mph SW1.6 kmh SW -- 29.74 in1007.1 mb 0.00 in0.0 mm 0.00 in0.0 mm 0.00 in0.0 mm
08:40 AM 30.4°F-0.9°C 22.5°F-5.3°C 72% 1.0 mph WSW1.6 kmh WSW -- 29.74 in1007.1 mb 0.00 in0.0 mm 0.00 in0.0 mm 0.00 in0.0 mm
08:45 AM 30.4°F-0.9°C 22.5°F-5.3°C 72% 1.0 mph SW1.6 kmh SW -- 29.74 in1007.1 mb 0.00 in0.0 mm 0.00 in0.0 mm 0.00 in0.0 mm
08:50 AM 30.4°F-0.9°C 22.8°F-5.1°C 73% Calm Calm 4.0 mph6.4 kmh 29.74 in1007.1 mb 0.00 in0.0 mm 0.00 in0.0 mm 0.00 in0.0 mm
08:55 AM 30.5°F-0.8°C 22.9°F-5.1°C 73% 2.0 mph WSW3.2 kmh WSW 4.0 mph6.4 kmh 29.75 in1007.5 mb 0.00 in0.0 mm 0.00 in0.0 mm 0.00 in0.0 mm
09:00 AM 30.6°F-0.8°C 22.7°F-5.2°C 72% 2.0 mph WSW3.2 kmh WSW -- 29.75 in1007.5 mb 0.00 in0.0 mm 0.00 in0.0 mm 0.00 in0.0 mm
09:05 AM 30.7°F-0.7°C 22.8°F-5.1°C 72% 4.0 mph SW6.4 kmh SW -- 29.75 in1007.5 mb 0.00 in0.0 mm 0.00 in0.0 mm 0.00 in0.0 mm
09:10 AM 30.7°F-0.7°C 22.8°F-5.1°C 72% 3.0 mph WSW4.8 kmh WSW -- 29.75 in1007.5 mb 0.00 in0.0 mm 0.00 in0.0 mm 0.00 in0.0 mm
09:15 AM 30.8°F-0.7°C 22.9°F-5.1°C 72% 1.0 mph WSW1.6 kmh WSW -- 29.76 in1007.8 mb 0.00 in0.0 mm 0.00 in0.0 mm 0.00 in0.0 mm
09:20 AM 30.8°F-0.7°C 22.9°F-5.1°C 72% 3.0 mph SW4.8 kmh SW -- 29.75 in1007.5 mb 0.00 in0.0 mm 0.00 in0.0 mm 0.00 in0.0 mm
09:25 AM 30.9°F-0.6°C 23.0°F-5.0°C 72% Calm Calm -- 29.75 in1007.5 mb 0.00 in0.0 mm 0.00 in0.0 mm 0.00 in0.0 mm
09:30 AM 30.9°F-0.6°C 23.0°F-5.0°C 72% Calm Calm -- 29.75 in1007.5 mb 0.00 in0.0 mm 0.00 in0.0 mm 0.00 in0.0 mm
09:35 AM 30.9°F-0.6°C 23.0°F-5.0°C 72% Calm Calm -- 29.75 in1007.5 mb 0.00 in0.0 mm 0.00 in0.0 mm 0.00 in0.0 mm
09:40 AM 30.9°F-0.6°C 23.0°F-5.0°C 72% Calm Calm 1.0 mph1.6 kmh 29.75 in1007.5 mb 0.00 in0.0 mm 0.00 in0.0 mm 0.00 in0.0 mm
09:45 AM 31.0°F-0.6°C 23.4°F-4.8°C 73% Calm Calm 1.0 mph1.6 kmh 29.75 in1007.5 mb 0.00 in0.0 mm 0.00 in0.0 mm 0.00 in0.0 mm
09:50 AM 31.1°F-0.5°C 23.5°F-4.7°C 73% 4.0 mph WSW6.4 kmh WSW -- 29.75 in1007.5 mb 0.00 in0.0 mm 0.00 in0.0 mm 0.00 in0.0 mm
09:55 AM 31.1°F-0.5°C 23.1°F-4.9°C 72% Calm Calm -- 29.74 in1007.1 mb 0.00 in0.0 mm 0.00 in0.0 mm 0.00 in0.0 mm
10:00 AM 31.2°F-0.4°C 23.2°F-4.9°C 72% 3.0 mph WSW4.8 kmh WSW -- 29.74 in1007.1 mb 0.00 in0.0 mm 0.00 in0.0 mm 0.00 in0.0 mm
10:05 AM 31.2°F-0.4°C 23.6°F-4.7°C 73% 1.0 mph WSW1.6 kmh WSW -- 29.75 in1007.5 mb 0.00 in0.0 mm 0.00 in0.0 mm 0.00 in0.0 mm
10:10 AM 31.1°F-0.5°C 23.8°F-4.6°C 74% 1.0 mph W1.6 kmh W -- 29.75 in1007.5 mb 0.00 in0.0 mm 0.00 in0.0 mm 0.00 in0.0 mm
10:15 AM 31.2°F-0.4°C 23.9°F-4.5°C 74% 3.0 mph W4.8 kmh W -- 29.75 in1007.5 mb 0.00 in0.0 mm 0.00 in0.0 mm 0.00 in0.0 mm
10:20 AM 31.2°F-0.4°C 23.9°F-4.5°C 74% 1.0 mph WSW1.6 kmh WSW -- 29.75 in1007.5 mb 0.00 in0.0 mm 0.00 in0.0 mm 0.00 in0.0 mm
10:25 AM 31.2°F-0.4°C 24.2°F-4.3°C 75% 5.0 mph WSW8.0 kmh WSW -- 29.74 in1007.1 mb 0.00 in0.0 mm 0.00 in0.0 mm 0.00 in0.0 mm
10:30 AM 31.2°F-0.4°C 24.5°F-4.2°C 76% 2.0 mph WSW3.2 kmh WSW 6.0 mph9.7 kmh 29.75 in1007.5 mb 0.00 in0.0 mm 0.00 in0.0 mm 0.00 in0.0 mm
10:35 AM 31.2°F-0.4°C 24.5°F-4.2°C 76% 6.0 mph WSW9.7 kmh WSW 6.0 mph9.7 kmh 29.75 in1007.5 mb 0.00 in0.0 mm 0.00 in0.0 mm 0.00 in0.0 mm
10:40 AM 31.2°F-0.4°C 24.8°F-4.0°C 77% 3.0 mph W4.8 kmh W -- 29.75 in1007.5 mb 0.00 in0.0 mm 0.00 in0.0 mm 0.00 in0.0 mm
10:45 AM 31.4°F-0.3°C 25.0°F-3.9°C 77% 2.0 mph WSW3.2 kmh WSW -- 29.76 in1007.8 mb 0.00 in0.0 mm 0.00 in0.0 mm 0.00 in0.0 mm
10:50 AM 31.7°F-0.2°C 25.0°F-3.9°C 76% 2.0 mph W3.2 kmh W -- 29.77 in1008.1 mb 0.00 in0.0 mm 0.00 in0.0 mm 0.00 in0.0 mm
10:55 AM 31.8°F-0.1°C 25.1°F-3.8°C 76% 6.0 mph WNW9.7 kmh WNW -- 29.77 in1008.1 mb 0.00 in0.0 mm 0.00 in0.0 mm 0.00 in0.0 mm
11:00 AM 31.9°F-0.1°C 25.2°F-3.8°C 76% 4.0 mph WSW6.4 kmh WSW -- 29.77 in1008.1 mb 0.00 in0.0 mm 0.00 in0.0 mm 0.00 in0.0 mm
11:05 AM 32.0°F0.0°C 25.6°F-3.6°C 77% Calm Calm -- 29.77 in1008.1 mb 0.00 in0.0 mm 0.00 in0.0 mm 0.00 in0.0 mm
11:10 AM 32.3°F0.2°C 25.9°F-3.4°C 77% Calm Calm -- 29.77 in1008.1 mb 0.00 in0.0 mm 0.00 in0.0 mm 0.00 in0.0 mm
11:15 AM 32.5°F0.3°C 26.1°F-3.3°C 77% 4.0 mph WSW6.4 kmh WSW -- 29.77 in1008.1 mb 0.00 in0.0 mm 0.00 in0.0 mm 0.00 in0.0 mm
11:20 AM 32.7°F0.4°C 26.3°F-3.2°C 77% 8.0 mph WSW12.9 kmh WSW 12.0 mph19.3 kmh 29.77 in1008.1 mb 0.00 in0.0 mm 0.00 in0.0 mm 0.00 in0.0 mm
11:25 AM 33.0°F0.6°C 26.9°F-2.8°C 78% 5.0 mph WSW8.0 kmh WSW 12.0 mph19.3 kmh 29.76 in1007.8 mb 0.00 in0.0 mm 0.00 in0.0 mm 0.00 in0.0 mm
11:30 AM 33.3°F0.7°C 27.2°F-2.7°C 78% 5.0 mph WSW8.0 kmh WSW -- 29.75 in1007.5 mb 0.00 in0.0 mm 0.00 in0.0 mm 0.00 in0.0 mm
11:35 AM 33.5°F0.8°C 27.4°F-2.6°C 78% 9.0 mph WSW14.5 kmh WSW -- 29.76 in1007.8 mb 0.00 in0.0 mm 0.00 in0.0 mm 0.00 in0.0 mm
11:40 AM 33.8°F1.0°C 27.7°F-2.4°C 78% 7.0 mph W11.3 kmh W -- 29.76 in1007.8 mb 0.00 in0.0 mm 0.00 in0.0 mm 0.00 in0.0 mm
11:45 AM 34.2°F1.2°C 28.1°F-2.2°C 78% 11.0 mph W17.7 kmh W -- 29.76 in1007.8 mb 0.00 in0.0 mm 0.00 in0.0 mm 0.00 in0.0 mm
11:50 AM 34.1°F1.2°C 28.3°F-2.1°C 79% 9.0 mph W14.5 kmh W -- 29.77 in1008.1 mb 0.00 in0.0 mm 0.00 in0.0 mm 0.00 in0.0 mm
11:55 AM 34.2°F1.2°C 28.4°F-2.0°C 79% 4.0 mph W6.4 kmh W -- 29.76 in1007.8 mb 0.00 in0.0 mm 0.00 in0.0 mm 0.00 in0.0 mm
12:00 PM 34.5°F1.4°C 28.7°F-1.8°C 79% 7.0 mph W11.3 kmh W -- 29.76 in1007.8 mb 0.00 in0.0 mm 0.00 in0.0 mm 0.00 in0.0 mm
12:05 PM 34.7°F1.5°C 28.9°F-1.7°C 79% 7.0 mph NW11.3 kmh NW -- 29.76 in1007.8 mb 0.00 in0.0 mm 0.00 in0.0 mm 0.00 in0.0 mm
12:10 PM 34.9°F1.6°C 29.4°F-1.4°C 80% 3.0 mph W4.8 kmh W 17.0 mph27.4 kmh 29.76 in1007.8 mb 0.00 in0.0 mm 0.00 in0.0 mm 0.00 in0.0 mm
12:15 PM 35.0°F1.7°C 29.2°F-1.6°C 79% 7.0 mph W11.3 kmh W 17.0 mph27.4 kmh 29.75 in1007.5 mb 0.00 in0.0 mm 0.00 in0.0 mm 0.00 in0.0 mm
12:20 PM 35.2°F1.8°C 29.4°F-1.4°C 79% 6.0 mph NW9.7 kmh NW -- 29.75 in1007.5 mb 0.00 in0.0 mm 0.00 in0.0 mm 0.00 in0.0 mm
12:25 PM 35.3°F1.8°C 29.4°F-1.4°C 79% 7.0 mph NW11.3 kmh NW -- 29.75 in1007.5 mb 0.00 in0.0 mm 0.00 in0.0 mm 0.00 in0.0 mm
12:30 PM 35.1°F1.7°C 29.3°F-1.5°C 79% 7.0 mph WNW11.3 kmh WNW -- 29.75 in1007.5 mb 0.00 in0.0 mm 0.00 in0.0 mm 0.00 in0.0 mm
12:35 PM 34.9°F1.6°C 29.4°F-1.4°C 80% 7.0 mph WNW11.3 kmh WNW -- 29.75 in1007.5 mb 0.00 in0.0 mm 0.00 in0.0 mm 0.00 in0.0 mm
12:40 PM 34.9°F1.6°C 29.4°F-1.4°C 80% 6.0 mph NW9.7 kmh NW -- 29.75 in1007.5 mb 0.00 in0.0 mm 0.00 in0.0 mm 0.00 in0.0 mm
12:45 PM 34.7°F1.5°C 29.2°F-1.6°C 80% 6.0 mph W9.7 kmh W -- 29.75 in1007.5 mb 0.00 in0.0 mm 0.00 in0.0 mm 0.00 in0.0 mm
12:50 PM 34.7°F1.5°C 28.9°F-1.7°C 79% 9.0 mph W14.5 kmh W -- 29.75 in1007.5 mb 0.00 in0.0 mm 0.00 in0.0 mm 0.00 in0.0 mm
12:55 PM 34.7°F1.5°C 28.9°F-1.7°C 79% 10.0 mph W16.1 kmh W -- 29.75 in1007.5 mb 0.00 in0.0 mm 0.00 in0.0 mm 0.00 in0.0 mm
01:00 PM 34.5°F1.4°C 28.7°F-1.8°C 79% 7.0 mph WNW11.3 kmh WNW 15.0 mph24.1 kmh 29.76 in1007.8 mb 0.00 in0.0 mm 0.00 in0.0 mm 0.00 in0.0 mm
01:05 PM 34.8°F1.6°C 29.0°F-1.7°C 79% 11.0 mph W17.7 kmh W 15.0 mph24.1 kmh 29.75 in1007.5 mb 0.00 in0.0 mm 0.00 in0.0 mm 0.00 in0.0 mm
01:10 PM 34.8°F1.6°C 28.7°F-1.8°C 78% 6.0 mph WSW9.7 kmh WSW -- 29.75 in1007.5 mb 0.00 in0.0 mm 0.00 in0.0 mm 0.00 in0.0 mm
01:15 PM 34.7°F1.5°C 28.2°F-2.1°C 77% 9.0 mph WNW14.5 kmh WNW -- 29.75 in1007.5 mb 0.00 in0.0 mm 0.00 in0.0 mm 0.00 in0.0 mm
01:20 PM 35.3°F1.8°C 28.8°F-1.8°C 77% 3.0 mph W4.8 kmh W -- 29.75 in1007.5 mb 0.00 in0.0 mm 0.00 in0.0 mm 0.00 in0.0 mm
01:25 PM 35.7°F2.1°C 28.9°F-1.7°C 76% 4.0 mph WSW6.4 kmh WSW -- 29.75 in1007.5 mb 0.00 in0.0 mm 0.00 in0.0 mm 0.00 in0.0 mm
01:30 PM 35.3°F1.8°C 28.2°F-2.1°C 75% 5.0 mph WSW8.0 kmh WSW -- 29.75 in1007.5 mb 0.00 in0.0 mm 0.00 in0.0 mm 0.00 in0.0 mm
01:35 PM 34.8°F1.6°C 28.0°F-2.2°C 76% 4.0 mph W6.4 kmh W -- 29.75 in1007.5 mb 0.00 in0.0 mm 0.00 in0.0 mm 0.00 in0.0 mm
01:40 PM 35.3°F1.8°C 28.5°F-1.9°C 76% 9.0 mph W14.5 kmh W -- 29.75 in1007.5 mb 0.00 in0.0 mm 0.00 in0.0 mm 0.00 in0.0 mm
01:45 PM 35.5°F1.9°C 28.4°F-2.0°C 75% 6.0 mph WNW9.7 kmh WNW -- 29.74 in1007.1 mb 0.00 in0.0 mm 0.00 in0.0 mm 0.00 in0.0 mm
01:50 PM 36.0°F2.2°C 28.9°F-1.7°C 75% 8.0 mph WNW12.9 kmh WNW 12.0 mph19.3 kmh 29.74 in1007.1 mb 0.00 in0.0 mm 0.00 in0.0 mm 0.00 in0.0 mm
01:55 PM 36.1°F2.3°C 28.6°F-1.9°C 74% 5.0 mph W8.0 kmh W 12.0 mph19.3 kmh 29.74 in1007.1 mb 0.00 in0.0 mm 0.00 in0.0 mm 0.00 in0.0 mm
02:00 PM 36.7°F2.6°C 29.2°F-1.6°C 74% 6.0 mph W9.7 kmh W -- 29.73 in1006.8 mb 0.00 in0.0 mm 0.00 in0.0 mm 0.00 in0.0 mm
02:05 PM 36.6°F2.6°C 28.4°F-2.0°C 72% 5.0 mph WSW8.0 kmh WSW -- 29.73 in1006.8 mb 0.00 in0.0 mm 0.00 in0.0 mm 0.00 in0.0 mm
02:10 PM 36.8°F2.7°C 28.3°F-2.1°C 71% 3.0 mph NW4.8 kmh NW -- 29.73 in1006.8 mb 0.00 in0.0 mm 0.00 in0.0 mm 0.00 in0.0 mm
02:15 PM 36.8°F2.7°C 28.3°F-2.1°C 71% 8.0 mph NW12.9 kmh NW -- 29.73 in1006.8 mb 0.00 in0.0 mm 0.00 in0.0 mm 0.00 in0.0 mm
02:20 PM 36.9°F2.7°C 28.4°F-2.0°C 71% 7.0 mph W11.3 kmh W -- 29.74 in1007.1 mb 0.00 in0.0 mm 0.00 in0.0 mm 0.00 in0.0 mm
02:25 PM 37.0°F2.8°C 28.5°F-1.9°C 71% 7.0 mph WNW11.3 kmh WNW -- 29.74 in1007.1 mb 0.00 in0.0 mm 0.00 in0.0 mm 0.00 in0.0 mm
02:30 PM 37.6°F3.1°C 29.4°F-1.4°C 72% 12.0 mph NW19.3 kmh NW -- 29.74 in1007.1 mb 0.00 in0.0 mm 0.00 in0.0 mm 0.00 in0.0 mm
02:35 PM 37.5°F3.1°C 28.3°F-2.1°C 69% 6.0 mph W9.7 kmh W -- 29.74 in1007.1 mb 0.00 in0.0 mm 0.00 in0.0 mm 0.00 in0.0 mm
02:40 PM 37.8°F3.2°C 28.6°F-1.9°C 69% 9.0 mph WSW14.5 kmh WSW 16.0 mph25.7 kmh 29.74 in1007.1 mb 0.00 in0.0 mm 0.00 in0.0 mm 0.00 in0.0 mm
02:45 PM 37.7°F3.2°C 28.1°F-2.2°C 68% 13.0 mph W20.9 kmh W 16.0 mph25.7 kmh 29.74 in1007.1 mb 0.00 in0.0 mm 0.00 in0.0 mm 0.00 in0.0 mm
02:50 PM 37.7°F3.2°C 28.5°F-1.9°C 69% 7.0 mph WSW11.3 kmh WSW -- 29.75 in1007.5 mb 0.00 in0.0 mm 0.00 in0.0 mm 0.00 in0.0 mm
02:55 PM 37.8°F3.2°C 28.6°F-1.9°C 69% 4.0 mph WSW6.4 kmh WSW -- 29.75 in1007.5 mb 0.00 in0.0 mm 0.00 in0.0 mm 0.00 in0.0 mm
03:00 PM 38.0°F3.3°C 28.4°F-2.0°C 68% 3.0 mph WNW4.8 kmh WNW -- 29.74 in1007.1 mb 0.00 in0.0 mm 0.00 in0.0 mm 0.00 in0.0 mm
03:05 PM 38.3°F3.5°C 28.3°F-2.1°C 67% 10.0 mph WSW16.1 kmh WSW -- 29.75 in1007.5 mb 0.00 in0.0 mm 0.00 in0.0 mm 0.00 in0.0 mm
03:10 PM 38.4°F3.6°C 28.0°F-2.2°C 66% 11.0 mph W17.7 kmh W -- 29.75 in1007.5 mb 0.00 in0.0 mm 0.00 in0.0 mm 0.00 in0.0 mm
03:15 PM 38.5°F3.6°C 28.1°F-2.2°C 66% 3.0 mph W4.8 kmh W -- 29.75 in1007.5 mb 0.00 in0.0 mm 0.00 in0.0 mm 0.00 in0.0 mm
03:20 PM 38.8°F3.8°C 28.1°F-2.2°C 65% 4.0 mph WSW6.4 kmh WSW -- 29.75 in1007.5 mb 0.00 in0.0 mm 0.00 in0.0 mm 0.00 in0.0 mm
03:25 PM 38.8°F3.8°C 27.3°F-2.6°C 63% 5.0 mph WSW8.0 kmh WSW -- 29.76 in1007.8 mb 0.00 in0.0 mm 0.00 in0.0 mm 0.00 in0.0 mm
03:30 PM 38.8°F3.8°C 27.7°F-2.4°C 64% 4.0 mph WSW6.4 kmh WSW 15.0 mph24.1 kmh 29.76 in1007.8 mb 0.00 in0.0 mm 0.00 in0.0 mm 0.00 in0.0 mm
03:35 PM 39.0°F3.9°C 27.9°F-2.3°C 64% 8.0 mph WSW12.9 kmh WSW 15.0 mph24.1 kmh 29.76 in1007.8 mb 0.00 in0.0 mm 0.00 in0.0 mm 0.00 in0.0 mm
03:40 PM 39.3°F4.1°C 28.2°F-2.1°C 64% 6.0 mph WSW9.7 kmh WSW -- 29.77 in1008.1 mb 0.00 in0.0 mm 0.00 in0.0 mm 0.00 in0.0 mm
03:45 PM 39.4°F4.1°C 27.5°F-2.5°C 62% 10.0 mph WNW16.1 kmh WNW -- 29.77 in1008.1 mb 0.00 in0.0 mm 0.00 in0.0 mm 0.00 in0.0 mm
03:50 PM 39.4°F4.1°C 27.9°F-2.3°C 63% 4.0 mph WSW6.4 kmh WSW -- 29.77 in1008.1 mb 0.00 in0.0 mm 0.00 in0.0 mm 0.00 in0.0 mm
03:55 PM 39.3°F4.1°C 27.8°F-2.3°C 63% 7.0 mph W11.3 kmh W -- 29.77 in1008.1 mb 0.00 in0.0 mm 0.00 in0.0 mm 0.00 in0.0 mm
04:00 PM 39.4°F4.1°C 27.5°F-2.5°C 62% 7.0 mph WSW11.3 kmh WSW -- 29.77 in1008.1 mb 0.00 in0.0 mm 0.00 in0.0 mm 0.00 in0.0 mm
04:05 PM 39.5°F4.2°C 27.2°F-2.7°C 61% 5.0 mph WSW8.0 kmh WSW -- 29.77 in1008.1 mb 0.00 in0.0 mm 0.00 in0.0 mm 0.00 in0.0 mm
04:10 PM 39.3°F4.1°C 27.0°F-2.8°C 61% 11.0 mph WSW17.7 kmh WSW -- 29.77 in1008.1 mb 0.00 in0.0 mm 0.00 in0.0 mm 0.00 in0.0 mm
04:15 PM 39.5°F4.2°C 27.6°F-2.4°C 62% 7.0 mph WNW11.3 kmh WNW -- 29.77 in1008.1 mb 0.00 in0.0 mm 0.00 in0.0 mm 0.00 in0.0 mm
04:20 PM 39.4°F4.1°C 27.1°F-2.7°C 61% 4.0 mph WSW6.4 kmh WSW 15.0 mph24.1 kmh 29.77 in1008.1 mb 0.00 in0.0 mm 0.00 in0.0 mm 0.00 in0.0 mm
04:25 PM 39.4°F4.1°C 26.7°F-2.9°C 60% 5.0 mph W8.0 kmh W 15.0 mph24.1 kmh 29.77 in1008.1 mb 0.00 in0.0 mm 0.00 in0.0 mm 0.00 in0.0 mm
04:30 PM 39.6°F4.2°C 27.3°F-2.6°C 61% 8.0 mph WNW12.9 kmh WNW -- 29.77 in1008.1 mb 0.00 in0.0 mm 0.00 in0.0 mm 0.00 in0.0 mm
04:35 PM 39.7°F4.3°C 26.6°F-3.0°C 59% 8.0 mph WSW12.9 kmh WSW -- 29.77 in1008.1 mb 0.00 in0.0 mm 0.00 in0.0 mm 0.00 in0.0 mm
04:40 PM 39.6°F4.2°C 26.5°F-3.1°C 59% 9.0 mph W14.5 kmh W -- 29.77 in1008.1 mb 0.00 in0.0 mm 0.00 in0.0 mm 0.00 in0.0 mm
04:45 PM 39.6°F4.2°C 26.5°F-3.1°C 59% 5.0 mph W8.0 kmh W -- 29.77 in1008.1 mb 0.00 in0.0 mm 0.00 in0.0 mm 0.00 in0.0 mm
04:50 PM 39.7°F4.3°C 26.6°F-3.0°C 59% 9.0 mph WSW14.5 kmh WSW -- 29.78 in1008.5 mb 0.00 in0.0 mm 0.00 in0.0 mm 0.00 in0.0 mm
04:55 PM 39.7°F4.3°C 26.6°F-3.0°C 59% 6.0 mph W9.7 kmh W -- 29.78 in1008.5 mb 0.00 in0.0 mm 0.00 in0.0 mm 0.00 in0.0 mm
05:00 PM 39.7°F4.3°C 25.7°F-3.5°C 57% 4.0 mph WSW6.4 kmh WSW -- 29.78 in1008.5 mb 0.00 in0.0 mm 0.00 in0.0 mm 0.00 in0.0 mm
05:05 PM 39.3°F4.1°C 25.8°F-3.4°C 58% 5.0 mph W8.0 kmh W -- 29.78 in1008.5 mb 0.00 in0.0 mm 0.00 in0.0 mm 0.00 in0.0 mm
05:10 PM 38.9°F3.8°C 25.8°F-3.4°C 59% 7.0 mph W11.3 kmh W 9.0 mph14.5 kmh 29.79 in1008.8 mb 0.00 in0.0 mm 0.00 in0.0 mm 0.00 in0.0 mm
05:15 PM 38.6°F3.7°C 25.9°F-3.4°C 60% 5.0 mph WSW8.0 kmh WSW 9.0 mph14.5 kmh 29.79 in1008.8 mb 0.00 in0.0 mm 0.00 in0.0 mm 0.00 in0.0 mm
05:20 PM 38.3°F3.5°C 26.4°F-3.1°C 62% 2.0 mph WSW3.2 kmh WSW -- 29.79 in1008.8 mb 0.00 in0.0 mm 0.00 in0.0 mm 0.00 in0.0 mm
05:25 PM 38.0°F3.3°C 26.5°F-3.1°C 63% 2.0 mph WSW3.2 kmh WSW -- 29.79 in1008.8 mb 0.00 in0.0 mm 0.00 in0.0 mm 0.00 in0.0 mm
05:30 PM 37.8°F3.2°C 26.7°F-2.9°C 64% 4.0 mph WSW6.4 kmh WSW -- 29.79 in1008.8 mb 0.00 in0.0 mm 0.00 in0.0 mm 0.00 in0.0 mm
05:35 PM 37.8°F3.2°C 26.7°F-2.9°C 64% 3.0 mph WSW4.8 kmh WSW -- 29.79 in1008.8 mb 0.00 in0.0 mm 0.00 in0.0 mm 0.00 in0.0 mm
05:40 PM 37.7°F3.2°C 26.6°F-3.0°C 64% 2.0 mph WSW3.2 kmh WSW -- 29.79 in1008.8 mb 0.00 in0.0 mm 0.00 in0.0 mm 0.00 in0.0 mm
05:45 PM 37.4°F3.0°C 26.4°F-3.1°C 64% Calm Calm -- 29.79 in1008.8 mb 0.00 in0.0 mm 0.00 in0.0 mm 0.00 in0.0 mm
05:50 PM 37.3°F2.9°C 26.3°F-3.2°C 64% 2.0 mph WSW3.2 kmh WSW -- 29.80 in1009.1 mb 0.00 in0.0 mm 0.00 in0.0 mm 0.00 in0.0 mm
05:55 PM 37.1°F2.8°C 26.1°F-3.3°C 64% 2.0 mph WSW3.2 kmh WSW -- 29.80 in1009.1 mb 0.00 in0.0 mm 0.00 in0.0 mm 0.00 in0.0 mm
06:00 PM 37.1°F2.8°C 26.1°F-3.3°C 64% 2.0 mph WSW3.2 kmh WSW 7.0 mph11.3 kmh 29.80 in1009.1 mb 0.00 in0.0 mm 0.00 in0.0 mm 0.00 in0.0 mm
06:05 PM 37.0°F2.8°C 26.0°F-3.3°C 64% 2.0 mph WSW3.2 kmh WSW 7.0 mph11.3 kmh 29.80 in1009.1 mb 0.00 in0.0 mm 0.00 in0.0 mm 0.00 in0.0 mm
06:10 PM 36.8°F2.7°C 25.8°F-3.4°C 64% 1.0 mph WSW1.6 kmh WSW -- 29.80 in1009.1 mb 0.00 in0.0 mm 0.00 in0.0 mm 0.00 in0.0 mm
06:15 PM 36.7°F2.6°C 25.7°F-3.5°C 64% 2.0 mph WSW3.2 kmh WSW -- 29.80 in1009.1 mb 0.00 in0.0 mm 0.00 in0.0 mm 0.00 in0.0 mm
06:20 PM 36.5°F2.5°C 25.5°F-3.6°C 64% 2.0 mph WSW3.2 kmh WSW -- 29.80 in1009.1 mb 0.00 in0.0 mm 0.00 in0.0 mm 0.00 in0.0 mm
06:25 PM 36.3°F2.4°C 25.3°F-3.7°C 64% 1.0 mph WSW1.6 kmh WSW -- 29.80 in1009.1 mb 0.00 in0.0 mm 0.00 in0.0 mm 0.00 in0.0 mm
06:30 PM 35.9°F2.2°C 25.3°F-3.7°C 65% Calm Calm -- 29.80 in1009.1 mb 0.00 in0.0 mm 0.00 in0.0 mm 0.00 in0.0 mm
06:35 PM 35.3°F1.8°C 25.1°F-3.8°C 66% Calm Calm -- 29.81 in1009.5 mb 0.00 in0.0 mm 0.00 in0.0 mm 0.00 in0.0 mm
06:40 PM 34.7°F1.5°C 24.9°F-3.9°C 67% Calm Calm -- 29.81 in1009.5 mb 0.00 in0.0 mm 0.00 in0.0 mm 0.00 in0.0 mm
06:45 PM 34.2°F1.2°C 24.8°F-4.0°C 68% Calm Calm -- 29.81 in1009.5 mb 0.00 in0.0 mm 0.00 in0.0 mm 0.00 in0.0 mm
06:50 PM 33.9°F1.1°C 24.8°F-4.0°C 69% 1.0 mph WSW1.6 kmh WSW 3.0 mph4.8 kmh 29.81 in1009.5 mb 0.00 in0.0 mm 0.00 in0.0 mm 0.00 in0.0 mm
06:55 PM 33.9°F1.1°C 24.8°F-4.0°C 69% Calm Calm 3.0 mph4.8 kmh 29.82 in1009.8 mb 0.00 in0.0 mm 0.00 in0.0 mm 0.00 in0.0 mm
07:00 PM 33.9°F1.1°C 25.2°F-3.8°C 70% Calm Calm -- 29.82 in1009.8 mb 0.00 in0.0 mm 0.00 in0.0 mm 0.00 in0.0 mm
07:05 PM 33.8°F1.0°C 24.7°F-4.1°C 69% Calm Calm -- 29.82 in1009.8 mb 0.00 in0.0 mm 0.00 in0.0 mm 0.00 in0.0 mm
07:10 PM 33.7°F0.9°C 24.6°F-4.1°C 69% Calm Calm -- 29.82 in1009.8 mb 0.00 in0.0 mm 0.00 in0.0 mm 0.00 in0.0 mm
07:15 PM 33.4°F0.8°C 24.7°F-4.1°C 70% Calm Calm -- 29.82 in1009.8 mb 0.00 in0.0 mm 0.00 in0.0 mm 0.00 in0.0 mm
07:20 PM 33.3°F0.7°C 24.6°F-4.1°C 70% Calm Calm -- 29.82 in1009.8 mb 0.00 in0.0 mm 0.00 in0.0 mm 0.00 in0.0 mm
07:25 PM 33.3°F0.7°C 24.6°F-4.1°C 70% Calm Calm -- 29.82 in1009.8 mb 0.00 in0.0 mm 0.00 in0.0 mm 0.00 in0.0 mm
07:30 PM 33.4°F0.8°C 24.7°F-4.1°C 70% Calm Calm -- 29.82 in1009.8 mb 0.00 in0.0 mm 0.00 in0.0 mm 0.00 in0.0 mm
07:35 PM 33.5°F0.8°C 24.8°F-4.0°C 70% Calm Calm -- 29.82 in1009.8 mb 0.00 in0.0 mm 0.00 in0.0 mm 0.00 in0.0 mm
07:40 PM 33.8°F1.0°C 24.7°F-4.1°C 69% Calm Calm -- 29.82 in1009.8 mb 0.00 in0.0 mm 0.00 in0.0 mm 0.00 in0.0 mm
07:45 PM 34.0°F1.1°C 24.6°F-4.1°C 68% Calm Calm -- 29.83 in1010.2 mb 0.00 in0.0 mm 0.00 in0.0 mm 0.00 in0.0 mm
07:50 PM 34.1°F1.2°C 24.7°F-4.1°C 68% Calm Calm -- 29.83 in1010.2 mb 0.00 in0.0 mm 0.00 in0.0 mm 0.00 in0.0 mm
07:55 PM 34.1°F1.2°C 24.3°F-4.3°C 67% Calm Calm -- 29.83 in1010.2 mb 0.00 in0.0 mm 0.00 in0.0 mm 0.00 in0.0 mm
08:00 PM 33.8°F1.0°C 24.0°F-4.4°C 67% Calm Calm -- 29.84 in1010.5 mb 0.00 in0.0 mm 0.00 in0.0 mm 0.00 in0.0 mm
08:05 PM 33.6°F0.9°C 23.8°F-4.6°C 67% Calm Calm -- 29.83 in1010.2 mb 0.00 in0.0 mm 0.00 in0.0 mm 0.00 in0.0 mm
08:10 PM 33.5°F0.8°C 24.1°F-4.4°C 68% Calm Calm -- 29.83 in1010.2 mb 0.00 in0.0 mm 0.00 in0.0 mm 0.00 in0.0 mm
08:15 PM 33.6°F0.9°C 24.2°F-4.3°C 68% Calm Calm -- 29.83 in1010.2 mb 0.00 in0.0 mm 0.00 in0.0 mm 0.00 in0.0 mm
08:20 PM 33.7°F0.9°C 23.9°F-4.5°C 67% Calm Calm -- 29.83 in1010.2 mb 0.00 in0.0 mm 0.00 in0.0 mm 0.00 in0.0 mm
08:25 PM 33.9°F1.1°C 24.1°F-4.4°C 67% Calm Calm -- 29.83 in1010.2 mb 0.00 in0.0 mm 0.00 in0.0 mm 0.00 in0.0 mm
08:30 PM 33.8°F1.0°C 23.7°F-4.6°C 66% Calm Calm -- 29.83 in1010.2 mb 0.00 in0.0 mm 0.00 in0.0 mm 0.00 in0.0 mm
08:35 PM 33.7°F0.9°C 23.9°F-4.5°C 67% Calm Calm -- 29.83 in1010.2 mb 0.00 in0.0 mm 0.00 in0.0 mm 0.00 in0.0 mm
08:40 PM 33.4°F0.8°C 24.0°F-4.4°C 68% Calm Calm -- 29.83 in1010.2 mb 0.00 in0.0 mm 0.00 in0.0 mm 0.00 in0.0 mm
08:45 PM 33.4°F0.8°C 24.0°F-4.4°C 68% Calm Calm -- 29.83 in1010.2 mb 0.00 in0.0 mm 0.00 in0.0 mm 0.00 in0.0 mm
08:50 PM 33.3°F0.7°C 23.9°F-4.5°C 68% Calm Calm -- 29.83 in1010.2 mb 0.00 in0.0 mm 0.00 in0.0 mm 0.00 in0.0 mm
08:55 PM 33.3°F0.7°C 23.9°F-4.5°C 68% Calm Calm -- 29.83 in1010.2 mb 0.00 in0.0 mm 0.00 in0.0 mm 0.00 in0.0 mm
09:00 PM 33.3°F0.7°C 23.9°F-4.5°C 68% Calm Calm -- 29.83 in1010.2 mb 0.00 in0.0 mm 0.00 in0.0 mm 0.00 in0.0 mm
09:05 PM 33.2°F0.7°C 23.8°F-4.6°C 68% Calm Calm -- 29.83 in1010.2 mb 0.00 in0.0 mm 0.00 in0.0 mm 0.00 in0.0 mm
09:10 PM 33.0°F0.6°C 23.6°F-4.7°C 68% Calm Calm -- 29.83 in1010.2 mb 0.00 in0.0 mm 0.00 in0.0 mm 0.00 in0.0 mm
09:15 PM 32.9°F0.5°C 23.9°F-4.5°C 69% Calm Calm -- 29.83 in1010.2 mb 0.00 in0.0 mm 0.00 in0.0 mm 0.00 in0.0 mm
09:20 PM 32.7°F0.4°C 23.7°F-4.6°C 69% Calm Calm -- 29.83 in1010.2 mb 0.00 in0.0 mm 0.00 in0.0 mm 0.00 in0.0 mm
09:25 PM 32.6°F0.3°C 23.6°F-4.7°C 69% Calm Calm -- 29.83 in1010.2 mb 0.00 in0.0 mm 0.00 in0.0 mm 0.00 in0.0 mm
09:30 PM 32.6°F0.3°C 23.6°F-4.7°C 69% Calm Calm -- 29.82 in1009.8 mb 0.00 in0.0 mm 0.00 in0.0 mm 0.00 in0.0 mm
09:35 PM 32.6°F0.3°C 23.6°F-4.7°C 69% Calm Calm -- 29.82 in1009.8 mb 0.00 in0.0 mm 0.00 in0.0 mm 0.00 in0.0 mm
09:40 PM 32.6°F0.3°C 23.6°F-4.7°C 69% Calm Calm -- 29.82 in1009.8 mb 0.00 in0.0 mm 0.00 in0.0 mm 0.00 in0.0 mm
09:45 PM 32.7°F0.4°C 24.0°F-4.4°C 70% Calm Calm -- 29.82 in1009.8 mb 0.00 in0.0 mm 0.00 in0.0 mm 0.00 in0.0 mm
09:50 PM 32.8°F0.4°C 24.1°F-4.4°C 70% Calm Calm -- 29.82 in1009.8 mb 0.00 in0.0 mm 0.00 in0.0 mm 0.00 in0.0 mm
09:55 PM 33.3°F0.7°C 24.2°F-4.3°C 69% 4.0 mph SW6.4 kmh SW -- 29.82 in1009.8 mb 0.00 in0.0 mm 0.00 in0.0 mm 0.00 in0.0 mm
10:00 PM 33.7°F0.9°C 24.3°F-4.3°C 68% 5.0 mph WSW8.0 kmh WSW -- 29.82 in1009.8 mb 0.00 in0.0 mm 0.00 in0.0 mm 0.00 in0.0 mm
10:05 PM 33.9°F1.1°C 24.1°F-4.4°C 67% 2.0 mph WSW3.2 kmh WSW -- 29.82 in1009.8 mb 0.00 in0.0 mm 0.00 in0.0 mm 0.00 in0.0 mm
10:10 PM 34.0°F1.1°C 24.2°F-4.3°C 67% 2.0 mph WSW3.2 kmh WSW 9.0 mph14.5 kmh 29.82 in1009.8 mb 0.00 in0.0 mm 0.00 in0.0 mm 0.00 in0.0 mm
10:15 PM 33.9°F1.1°C 24.1°F-4.4°C 67% 3.0 mph WSW4.8 kmh WSW 9.0 mph14.5 kmh 29.82 in1009.8 mb 0.00 in0.0 mm 0.00 in0.0 mm 0.00 in0.0 mm
10:20 PM 33.8°F1.0°C 24.0°F-4.4°C 67% 2.0 mph WSW3.2 kmh WSW -- 29.82 in1009.8 mb 0.00 in0.0 mm 0.00 in0.0 mm 0.00 in0.0 mm
10:25 PM 33.8°F1.0°C 24.0°F-4.4°C 67% 1.0 mph WSW1.6 kmh WSW -- 29.82 in1009.8 mb 0.00 in0.0 mm 0.00 in0.0 mm 0.00 in0.0 mm
10:30 PM 33.8°F1.0°C 24.0°F-4.4°C 67% 3.0 mph WSW4.8 kmh WSW -- 29.82 in1009.8 mb 0.00 in0.0 mm 0.00 in0.0 mm 0.00 in0.0 mm
10:35 PM 33.9°F1.1°C 23.8°F-4.6°C 66% 5.0 mph WSW8.0 kmh WSW -- 29.81 in1009.5 mb 0.00 in0.0 mm 0.00 in0.0 mm 0.00 in0.0 mm
10:40 PM 33.9°F1.1°C 24.1°F-4.4°C 67% 5.0 mph WSW8.0 kmh WSW -- 29.82 in1009.8 mb 0.00 in0.0 mm 0.00 in0.0 mm 0.00 in0.0 mm
10:45 PM 33.9°F1.1°C 23.8°F-4.6°C 66% 4.0 mph SW6.4 kmh SW -- 29.82 in1009.8 mb 0.00 in0.0 mm 0.00 in0.0 mm 0.00 in0.0 mm
10:50 PM 33.8°F1.0°C 24.0°F-4.4°C 67% 3.0 mph WSW4.8 kmh WSW -- 29.82 in1009.8 mb 0.00 in0.0 mm 0.00 in0.0 mm 0.00 in0.0 mm
10:55 PM 33.7°F0.9°C 23.9°F-4.5°C 67% Calm Calm -- 29.81 in1009.5 mb 0.00 in0.0 mm 0.00 in0.0 mm 0.00 in0.0 mm
11:00 PM 33.6°F0.9°C 23.8°F-4.6°C 67% Calm Calm 8.0 mph12.9 kmh 29.81 in1009.5 mb 0.00 in0.0 mm 0.00 in0.0 mm 0.00 in0.0 mm
11:05 PM 33.5°F0.8°C 24.1°F-4.4°C 68% Calm Calm 8.0 mph12.9 kmh 29.81 in1009.5 mb 0.00 in0.0 mm 0.00 in0.0 mm 0.00 in0.0 mm
11:10 PM 33.5°F0.8°C 24.1°F-4.4°C 68% 4.0 mph W6.4 kmh W -- 29.81 in1009.5 mb 0.00 in0.0 mm 0.00 in0.0 mm 0.00 in0.0 mm
11:15 PM 33.4°F0.8°C 24.0°F-4.4°C 68% 2.0 mph WSW3.2 kmh WSW -- 29.81 in1009.5 mb 0.00 in0.0 mm 0.00 in0.0 mm 0.00 in0.0 mm
11:20 PM 33.3°F0.7°C 23.9°F-4.5°C 68% 3.0 mph WSW4.8 kmh WSW -- 29.82 in1009.8 mb 0.00 in0.0 mm 0.00 in0.0 mm 0.00 in0.0 mm
11:25 PM 33.3°F0.7°C 23.9°F-4.5°C 68% 3.0 mph W4.8 kmh W -- 29.82 in1009.8 mb 0.00 in0.0 mm 0.00 in0.0 mm 0.00 in0.0 mm
11:30 PM 33.3°F0.7°C 23.5°F-4.7°C 67% 2.0 mph WSW3.2 kmh WSW -- 29.81 in1009.5 mb 0.00 in0.0 mm 0.00 in0.0 mm 0.00 in0.0 mm
11:35 PM 33.3°F0.7°C 23.5°F-4.7°C 67% Calm Calm -- 29.81 in1009.5 mb 0.00 in0.0 mm 0.00 in0.0 mm 0.00 in0.0 mm
11:40 PM 33.3°F0.7°C 23.5°F-4.7°C 67% Calm Calm -- 29.81 in1009.5 mb 0.00 in0.0 mm 0.00 in0.0 mm 0.00 in0.0 mm
11:45 PM 33.2°F0.7°C 23.1°F-4.9°C 66% 2.0 mph W3.2 kmh W -- 29.81 in1009.5 mb 0.00 in0.0 mm 0.00 in0.0 mm 0.00 in0.0 mm
11:50 PM 33.0°F0.6°C 23.3°F-4.8°C 67% 2.0 mph W3.2 kmh W 8.0 mph12.9 kmh 29.81 in1009.5 mb 0.00 in0.0 mm 0.00 in0.0 mm 0.00 in0.0 mm
11:55 PM 32.8°F0.4°C 23.1°F-4.9°C 67% 1.0 mph SW1.6 kmh SW 8.0 mph12.9 kmh 29.81 in1009.5 mb 0.00 in0.0 mm 0.00 in0.0 mm 0.00 in0.0 mm